createdAt,value
2019-03-02T00:00:42.476Z,100489.13
2019-03-02T00:03:14.256Z,100488.22
2019-03-02T00:05:46.287Z,100490.83
2019-03-02T00:08:18.133Z,100490.51
2019-03-02T00:10:49.976Z,100490.08
2019-03-02T00:13:21.823Z,100484.02
2019-03-02T00:15:53.697Z,100488.77
2019-03-02T00:18:25.904Z,100488.27
2019-03-02T00:20:59.133Z,100483.03
2019-03-02T00:23:31.083Z,100480.03
2019-03-02T00:26:06.240Z,100476.99
2019-03-02T00:28:36.537Z,100476.55
2019-03-02T00:31:08.393Z,100480.09
2019-03-02T00:33:40.287Z,100477.42
2019-03-02T00:36:12.145Z,100482.21
2019-03-02T00:38:44.370Z,100480.43
2019-03-02T00:41:16.249Z,100476.48
2019-03-02T00:43:48.772Z,100474.73
2019-03-02T00:46:20.771Z,100473.81
2019-03-02T00:48:54.576Z,100472.11
2019-03-02T00:51:26.526Z,100472.55
2019-03-02T00:53:58.355Z,100472.55
2019-03-02T00:56:30.228Z,100468.09
2019-03-02T00:59:04.104Z,100470.38
2019-03-02T01:01:36.676Z,100459.98
2019-03-02T01:04:08.541Z,100465.21
2019-03-02T01:06:40.400Z,100467.44
2019-03-02T01:09:13.087Z,100462.71
2019-03-02T01:11:44.974Z,100461.45
2019-03-02T01:14:16.861Z,100459.75
2019-03-02T01:16:51.727Z,100458.91
2019-03-02T01:19:22.284Z,100445.36
2019-03-02T01:21:54.189Z,100450.22
2019-03-02T01:24:26.052Z,100436.64
2019-03-02T01:26:59.413Z,100444.06
2019-03-02T01:29:31.506Z,100434.53
2019-03-02T01:32:03.376Z,100436.20
2019-03-02T01:34:35.223Z,100436.20
2019-03-02T01:37:08.164Z,100441.94
2019-03-02T01:39:40.724Z,100437.63
2019-03-02T01:42:12.585Z,100442.06
2019-03-02T01:44:44.477Z,100438.08
2019-03-02T01:47:17.040Z,100430.70
2019-03-02T01:49:48.977Z,100428.59
2019-03-02T01:52:20.820Z,100426.03
2019-03-02T01:54:55.756Z,100413.87
2019-03-02T01:57:26.946Z,100413.00
2019-03-02T01:59:58.766Z,100408.25
2019-03-02T02:02:32.685Z,100407.41
2019-03-02T02:05:04.367Z,100402.64
2019-03-02T02:07:36.632Z,100404.78
2019-03-02T02:10:11.991Z,100403.91
2019-03-02T02:12:44.269Z,100403.46
2019-03-02T02:15:18.859Z,100401.71
2019-03-02T02:17:53.055Z,100395.61
2019-03-02T02:20:24.329Z,100397.31
2019-03-02T02:22:56.185Z,100392.94
2019-03-02T02:25:28.053Z,100394.30
2019-03-02T02:27:59.947Z,100389.52
2019-03-02T02:30:31.902Z,100389.56
2019-03-02T02:33:05.802Z,100386.02
2019-03-02T02:35:40.302Z,100389.19
2019-03-02T02:38:15.529Z,100386.52
2019-03-02T02:40:44.586Z,100388.97
2019-03-02T02:43:20.857Z,100382.16
2019-03-02T02:45:53.634Z,100380.47
2019-03-02T02:48:26.293Z,100377.67
2019-03-02T02:50:57.357Z,100380.73
2019-03-02T02:53:29.236Z,100368.90
2019-03-02T02:56:01.065Z,100368.20
2019-03-02T02:58:32.953Z,100359.48
2019-03-02T03:01:04.825Z,100361.41
2019-03-02T03:03:36.683Z,100362.45
2019-03-02T03:06:08.574Z,100357.09
2019-03-02T03:08:45.339Z,100356.41
2019-03-02T03:11:18.708Z,100355.83
2019-03-02T03:13:50.619Z,100354.39
2019-03-02T03:16:22.466Z,100348.56
2019-03-02T03:18:54.369Z,100349.25
2019-03-02T03:21:28.130Z,100346.05
2019-03-02T03:24:03.929Z,100343.18
2019-03-02T03:26:35.286Z,100338.83
2019-03-02T03:29:09.602Z,100334.95
2019-03-02T03:31:40.531Z,100333.28
2019-03-02T03:34:12.380Z,100323.84
2019-03-02T03:36:44.244Z,100328.05
2019-03-02T03:39:16.096Z,100327.77
2019-03-02T03:41:47.947Z,100330.17
2019-03-02T03:44:25.903Z,100329.36
2019-03-02T03:46:56.140Z,100320.16
2019-03-02T03:49:30.100Z,100327.92
2019-03-02T03:52:04.042Z,100331.91
2019-03-02T03:54:34.189Z,100325.31
2019-03-02T03:57:06.065Z,100322.68
2019-03-02T03:59:38.112Z,100319.91
2019-03-02T04:02:09.980Z,100316.95
2019-03-02T04:04:41.853Z,100318.70
2019-03-02T04:07:13.667Z,100313.92
2019-03-02T04:09:46.939Z,100319.52
2019-03-02T04:12:19.886Z,100313.84
2019-03-02T04:14:56.806Z,100313.75
2019-03-02T04:17:26.319Z,100312.42
2019-03-02T04:19:58.211Z,100309.33
2019-03-02T04:22:30.140Z,100311.75
2019-03-02T04:25:02.056Z,100309.77
2019-03-02T04:27:33.964Z,100309.88
2019-03-02T04:30:07.081Z,100309.09
2019-03-02T04:32:38.995Z,100308.77
2019-03-02T04:35:10.983Z,100318.17
2019-03-02T04:37:42.848Z,100317.23
2019-03-02T04:40:14.728Z,100311.55
2019-03-02T04:42:50.062Z,100310.39
2019-03-02T04:45:20.160Z,100311.13
2019-03-02T04:47:52.051Z,100301.53
2019-03-02T04:50:27.035Z,100301.28
2019-03-02T04:52:57.461Z,100295.23
2019-03-02T04:55:29.327Z,100295.37
2019-03-02T04:58:01.260Z,100303.70
2019-03-02T05:00:33.252Z,100304.09
2019-03-02T05:03:05.129Z,100302.08
2019-03-02T05:05:36.975Z,100297.78
2019-03-02T05:08:08.909Z,100292.45
2019-03-02T05:10:40.794Z,100292.70
2019-03-02T05:13:12.769Z,100288.63
2019-03-02T05:15:44.624Z,100287.71
2019-03-02T05:18:18.117Z,100275.56
2019-03-02T05:20:50.063Z,100282.41
2019-03-02T05:23:21.919Z,100284.38
2019-03-02T05:25:54.560Z,100284.83
2019-03-02T05:28:39.709Z,100279.98
2019-03-02T05:31:11.462Z,100285.64
2019-03-02T05:33:43.295Z,100280.53
2019-03-02T05:36:15.468Z,100274.36
2019-03-02T05:38:47.326Z,100279.39
2019-03-02T05:41:19.180Z,100275.50
2019-03-02T05:43:51.011Z,100269.52
2019-03-02T05:46:25.511Z,100269.67
2019-03-02T05:48:56.475Z,100272.44
2019-03-02T05:51:28.324Z,100275.30
2019-03-02T05:54:02.679Z,100272.30
2019-03-02T05:56:33.815Z,100271.63
2019-03-02T05:59:05.683Z,100272.02
2019-03-02T06:01:40.417Z,100274.73
2019-03-02T06:04:11.184Z,100275.25
2019-03-02T06:06:43.030Z,100272.02
2019-03-02T06:09:14.928Z,100275.67
2019-03-02T06:11:46.826Z,100269.26
2019-03-02T06:14:18.692Z,100272.45
2019-03-02T06:16:53.787Z,100273.62
2019-03-02T06:19:24.352Z,100275.32
2019-03-02T06:21:56.203Z,100277.05
2019-03-02T06:24:28.085Z,100278.55
2019-03-02T06:26:59.973Z,100275.27
2019-03-02T06:29:32.757Z,100274.87
2019-03-02T06:32:05.433Z,100271.14
2019-03-02T06:34:37.667Z,100275.30
2019-03-02T06:37:09.551Z,100273.88
2019-03-02T06:39:44.463Z,100275.27
2019-03-02T06:42:15.070Z,100274.00
2019-03-02T06:44:46.957Z,100273.50
2019-03-02T06:47:18.812Z,100267.77
2019-03-02T06:49:53.146Z,100265.70
2019-03-02T06:52:25.486Z,100255.06
2019-03-02T06:54:58.053Z,100251.01
2019-03-02T06:57:29.921Z,100248.39
2019-03-02T07:00:01.815Z,100216.00
2019-03-02T07:02:35.146Z,100210.48
2019-03-02T07:05:07.893Z,100215.16
2019-03-02T07:07:39.848Z,100212.09
2019-03-02T07:10:17.852Z,100209.98
2019-03-02T07:12:48.831Z,100215.66
2019-03-02T07:15:20.658Z,100205.17
2019-03-02T07:18:05.741Z,100205.53
2019-03-02T07:20:36.034Z,100192.48
2019-03-02T07:23:07.880Z,100189.91
2019-03-02T07:25:40.847Z,100188.66
2019-03-02T07:28:13.419Z,100182.13
2019-03-02T07:30:45.341Z,100177.57
2019-03-02T07:33:17.243Z,100182.75
2019-03-02T07:35:51.738Z,100190.59
2019-03-02T07:38:22.816Z,100184.05
2019-03-02T07:40:54.828Z,100186.66
2019-03-02T07:43:26.710Z,100188.25
2019-03-02T07:45:58.644Z,100187.81
2019-03-02T07:48:33.052Z,100190.30
2019-03-02T07:51:05.172Z,100183.13
2019-03-02T07:53:38.026Z,100191.98
2019-03-02T07:56:09.862Z,100203.63
2019-03-02T07:58:41.762Z,100199.26
2019-03-02T08:01:16.648Z,100203.41
2019-03-02T08:03:49.615Z,100207.14
2019-03-02T08:06:21.848Z,100203.16
2019-03-02T08:08:55.099Z,100213.19
2019-03-02T08:11:27.079Z,100215.92
2019-03-02T08:13:59.003Z,100214.95
2019-03-02T08:16:30.910Z,100217.45
2019-03-02T08:19:03.897Z,100226.77
2019-03-02T08:21:36.889Z,100225.02
2019-03-02T08:24:09.142Z,100229.67
2019-03-02T08:26:41.016Z,100232.45
2019-03-02T08:29:12.925Z,100230.78
2019-03-02T08:31:45.652Z,100233.77
2019-03-02T08:34:17.704Z,100236.32
2019-03-02T08:36:50.389Z,100241.33
2019-03-02T08:39:23.194Z,100240.68
2019-03-02T08:41:55.098Z,100249.91
2019-03-02T08:44:26.996Z,100242.29
2019-03-02T08:46:58.901Z,100253.55
2019-03-02T08:49:30.757Z,100246.20
2019-03-02T08:52:02.714Z,100255.60
2019-03-02T08:54:34.567Z,100247.73
2019-03-02T08:57:06.449Z,100246.22
2019-03-02T08:59:38.850Z,100247.38
2019-03-02T09:02:10.813Z,100247.74
2019-03-02T09:04:42.730Z,100245.33
2019-03-02T09:07:14.762Z,100237.52
2019-03-02T09:09:46.619Z,100238.80
2019-03-02T09:12:21.916Z,100228.53
2019-03-02T09:14:52.005Z,100230.55
2019-03-02T09:17:23.914Z,100225.41
2019-03-02T09:19:59.571Z,100219.27
2019-03-02T09:22:29.348Z,100228.80
2019-03-02T09:25:01.210Z,100213.51
2019-03-02T09:27:33.130Z,100221.02
2019-03-02T09:30:06.211Z,100216.73
2019-03-02T09:32:38.070Z,100221.73
2019-03-02T09:35:12.930Z,100218.55
2019-03-02T09:37:44.821Z,100219.81
2019-03-02T09:40:19.586Z,100224.41
2019-03-02T09:42:51.694Z,100225.24
2019-03-02T09:45:23.739Z,100225.38
2019-03-02T09:47:55.607Z,100220.69
2019-03-02T09:50:27.596Z,100225.84
2019-03-02T09:52:59.913Z,100223.25
2019-03-02T09:55:31.774Z,100227.50
2019-03-02T09:58:03.638Z,100225.72
2019-03-02T10:00:36.059Z,100217.75
2019-03-02T10:03:08.041Z,100217.81
2019-03-02T10:05:39.951Z,100210.11
2019-03-02T10:08:13.261Z,100215.95
2019-03-02T10:10:45.387Z,100208.51
2019-03-02T10:13:17.315Z,100209.50
2019-03-02T10:15:49.179Z,100204.98
2019-03-02T10:18:21.066Z,100202.81
2019-03-02T10:20:52.926Z,100195.97
2019-03-02T10:23:24.825Z,100194.69
2019-03-02T10:25:58.068Z,100194.69
2019-03-02T10:28:33.813Z,100193.08
2019-03-02T10:31:06.136Z,100185.53
2019-03-02T10:33:37.173Z,100183.10
2019-03-02T10:36:09.054Z,100177.45
2019-03-02T10:38:40.876Z,100176.21
2019-03-02T10:41:12.737Z,100182.50
2019-03-02T10:43:45.590Z,100185.94
2019-03-02T10:46:17.617Z,100184.88
2019-03-02T10:48:49.468Z,100188.22
2019-03-02T10:51:21.337Z,100186.00
2019-03-02T10:53:55.818Z,100177.56
2019-03-02T10:56:26.789Z,100189.30
2019-03-02T10:58:58.644Z,100181.84
2019-03-02T11:01:30.502Z,100175.13
2019-03-02T11:04:10.763Z,100174.11
2019-03-02T11:06:54.705Z,100172.80
2019-03-02T11:09:45.411Z,100185.89
2019-03-02T11:12:27.904Z,100169.34
2019-03-02T11:15:10.661Z,100162.34
2019-03-02T11:17:48.709Z,100159.50
2019-03-02T11:20:30.245Z,100145.53
2019-03-02T11:23:23.008Z,100154.72
2019-03-02T11:26:08.909Z,100137.92
2019-03-02T11:28:57.101Z,100132.41
2019-03-02T11:31:50.836Z,100125.30
2019-03-02T11:38:46.560Z,100110.98
2019-03-02T11:41:40.230Z,100107.34
2019-03-02T11:44:27.569Z,100107.78
2019-03-02T11:47:21.382Z,100100.73
2019-03-02T11:50:03.884Z,100093.06
2019-03-02T11:53:15.627Z,100098.83
2019-03-02T11:55:53.592Z,100094.86
2019-03-02T11:58:43.093Z,100090.27
2019-03-02T12:01:47.172Z,100085.96
2019-03-02T12:04:40.161Z,100089.78
2019-03-02T12:07:20.331Z,100087.32
2019-03-02T12:10:01.000Z,100081.63
2019-03-02T12:12:51.368Z,100080.66
2019-03-02T12:15:49.258Z,100076.16
2019-03-02T12:18:41.335Z,100089.11
2019-03-02T12:21:37.993Z,100063.06
2019-03-02T12:24:25.828Z,100074.55
2019-03-02T12:27:08.494Z,100064.47
2019-03-02T12:29:51.380Z,100069.72
2019-03-02T12:32:45.842Z,100061.39
2019-03-02T12:35:47.128Z,100060.73
2019-03-02T12:38:49.850Z,100050.91
2019-03-02T12:41:43.618Z,100031.56
2019-03-02T12:44:28.982Z,100040.28
2019-03-02T12:47:25.842Z,100034.52
2019-03-02T12:50:07.872Z,100047.48
2019-03-02T12:52:51.829Z,100039.19
2019-03-02T12:55:45.699Z,100051.98
2019-03-02T12:58:28.385Z,100035.48
2019-03-02T13:01:22.049Z,100026.39
2019-03-02T13:04:24.929Z,100028.16
2019-03-02T13:07:24.558Z,100013.16
2019-03-02T13:10:15.164Z,100005.05
2019-03-02T13:13:09.555Z,100003.96
2019-03-02T13:16:00.348Z,100002.31
2019-03-02T13:18:41.604Z,100000.50
2019-03-02T13:21:38.551Z,100001.45
2019-03-02T13:24:27.903Z,100001.98
2019-03-02T13:27:30.653Z,99995.92
2019-03-02T13:30:14.606Z,99995.63
2019-03-02T13:33:00.315Z,99987.75
2019-03-02T13:35:37.540Z,99993.73
2019-03-02T13:38:30.166Z,99989.41
2019-03-02T13:41:17.415Z,100000.16
2019-03-02T13:44:02.099Z,99997.21
2019-03-02T13:46:40.372Z,99983.89
2019-03-02T13:49:33.937Z,99977.77
2019-03-02T13:52:40.346Z,99973.90
2019-03-02T13:55:21.592Z,99968.10
2019-03-02T13:58:02.393Z,99963.84
2019-03-02T14:00:44.198Z,99964.70
2019-03-02T14:03:40.093Z,99954.62
2019-03-02T14:06:37.747Z,99949.13
2019-03-02T14:09:28.954Z,99951.53
2019-03-02T14:12:15.954Z,99943.00
2019-03-02T14:15:12.369Z,99951.53
2019-03-02T14:18:07.496Z,99948.08
2019-03-02T14:20:49.174Z,99946.97
2019-03-02T14:23:32.096Z,99941.44
2019-03-02T14:26:20.831Z,99945.14
2019-03-02T14:28:59.039Z,99939.73
2019-03-02T14:31:37.935Z,99936.16
2019-03-02T14:34:26.719Z,99921.49
2019-03-02T14:37:03.730Z,99923.70
2019-03-02T14:39:57.249Z,99922.30
2019-03-02T14:42:51.044Z,99917.78
2019-03-02T14:45:59.698Z,99914.98
2019-03-02T14:48:49.493Z,99918.58
2019-03-02T14:51:39.561Z,99907.45
2019-03-02T14:54:30.315Z,99912.50
2019-03-02T14:57:11.584Z,99906.47
2019-03-02T15:00:08.563Z,99908.03
2019-03-02T15:02:57.699Z,99903.67
2019-03-02T15:05:39.835Z,99908.59
2019-03-02T15:08:21.409Z,99901.78
2019-03-02T15:11:00.420Z,99900.80
2019-03-02T15:13:38.538Z,99904.30
2019-03-02T15:16:32.502Z,99898.47
2019-03-02T15:19:16.808Z,99900.38
2019-03-02T15:22:13.804Z,99909.09
2019-03-02T15:24:57.079Z,99901.05
2019-03-02T15:27:43.693Z,99913.02
2019-03-02T15:30:37.460Z,99898.99
2019-03-02T15:33:23.580Z,99898.22
2019-03-02T15:36:14.340Z,99903.77
2019-03-02T15:39:17.348Z,99902.54
2019-03-02T15:42:08.273Z,99895.05
2019-03-02T15:44:57.645Z,99890.80
2019-03-02T15:47:50.739Z,99901.36
2019-03-02T15:50:39.113Z,99892.55
2019-03-02T15:53:20.336Z,99889.38
2019-03-02T15:55:57.520Z,99885.20
2019-03-02T15:58:47.181Z,99891.23
2019-03-02T16:01:35.170Z,99881.36
2019-03-02T16:04:24.707Z,99888.75
2019-03-02T16:07:15.459Z,99888.06
2019-03-02T16:10:18.344Z,99890.74
2019-03-02T16:13:21.079Z,99891.15
2019-03-02T16:16:01.173Z,99888.70
2019-03-02T16:18:54.974Z,99882.62
2019-03-02T16:21:33.033Z,99877.67
2019-03-02T16:24:29.463Z,99890.65
2019-03-02T16:27:13.370Z,99883.61
2019-03-02T16:30:04.750Z,99883.28
2019-03-02T16:32:45.583Z,99883.34
2019-03-02T16:35:48.462Z,99894.70
2019-03-02T16:38:42.264Z,99891.19
2019-03-02T16:41:25.499Z,99882.19
2019-03-02T16:44:21.452Z,99885.61
2019-03-02T16:47:20.893Z,99886.61
2019-03-02T16:50:05.381Z,99886.13
2019-03-02T16:53:07.889Z,99892.67
2019-03-02T16:55:56.847Z,99888.64
2019-03-02T16:58:53.448Z,99897.06
2019-03-02T17:01:47.867Z,99892.38
2019-03-02T17:04:35.776Z,99894.97
2019-03-02T17:07:27.586Z,99895.33
2019-03-02T17:10:20.085Z,99896.40
2019-03-02T17:13:05.769Z,99895.13
2019-03-02T17:15:49.191Z,99900.59
2019-03-02T17:18:34.344Z,99893.78
2019-03-02T17:21:30.034Z,99896.19
2019-03-02T17:24:23.065Z,99893.77
2019-03-02T17:27:30.113Z,99887.44
2019-03-02T17:30:17.742Z,99889.45
2019-03-02T17:33:23.028Z,99884.97
2019-03-02T17:36:05.727Z,99883.91
2019-03-02T17:39:02.260Z,99888.55
2019-03-02T17:41:51.383Z,99894.02
2019-03-02T17:44:46.525Z,99884.45
2019-03-02T17:47:39.585Z,99881.56
2019-03-02T17:50:28.564Z,99884.13
2019-03-02T17:53:10.138Z,99882.11
2019-03-02T17:55:56.022Z,99877.42
2019-03-02T17:58:52.384Z,99881.20
2019-03-02T18:01:32.294Z,99880.59
2019-03-02T18:04:31.755Z,99878.30
2019-03-02T18:07:29.478Z,99875.95
2019-03-02T18:10:18.214Z,99875.66
2019-03-02T18:13:20.573Z,99876.19
2019-03-02T18:16:00.309Z,99865.14
2019-03-02T18:18:31.878Z,99866.59
2019-03-02T18:21:02.902Z,99860.12
2019-03-02T18:23:34.179Z,99862.22
2019-03-02T18:26:05.446Z,99860.37
2019-03-02T18:28:36.711Z,99862.95
2019-03-02T18:31:08.175Z,99859.00
2019-03-02T18:33:47.722Z,99866.03
2019-03-02T18:36:18.544Z,99866.56
2019-03-02T18:38:50.380Z,99875.47
2019-03-02T18:41:21.801Z,99874.48
2019-03-02T18:43:53.456Z,99874.78
2019-03-02T18:46:24.734Z,99880.89
2019-03-02T18:49:20.746Z,99878.69
2019-03-02T18:52:09.618Z,99877.46
2019-03-02T18:54:49.089Z,99881.22
2019-03-02T18:57:16.239Z,99867.94
2019-03-02T18:59:48.121Z,99865.52
2019-03-02T19:02:20.006Z,99873.86
2019-03-02T19:04:54.647Z,99871.55
2019-03-02T19:07:25.787Z,99877.78
2019-03-02T19:09:57.296Z,99879.02
2019-03-02T19:12:32.278Z,99885.75
2019-03-02T19:15:02.172Z,99878.81
2019-03-02T19:17:42.963Z,99879.27
2019-03-02T19:20:14.820Z,99871.56
2019-03-02T19:22:46.563Z,99872.93
2019-03-02T19:25:18.134Z,99877.59
2019-03-02T19:27:49.673Z,99871.06
2019-03-02T19:30:21.542Z,99873.34
2019-03-02T19:32:53.441Z,99876.44
2019-03-02T19:35:24.819Z,99875.29
2019-03-02T19:37:56.154Z,99887.13
2019-03-02T19:40:29.469Z,99891.83
2019-03-02T19:43:00.843Z,99866.45
2019-03-02T19:45:32.180Z,99879.91
2019-03-02T19:48:03.547Z,99893.05
2019-03-02T19:50:35.212Z,99888.45
2019-03-02T19:53:07.203Z,99875.39
2019-03-02T19:55:38.839Z,99878.72
2019-03-02T19:58:10.784Z,99881.22
2019-03-02T20:00:42.896Z,99882.39
2019-03-02T20:03:14.259Z,99888.06
2019-03-02T20:05:45.639Z,99887.69
2019-03-02T20:08:17.168Z,99892.41
2019-03-02T20:10:48.520Z,99891.09
2019-03-02T20:13:19.865Z,99882.52
2019-03-02T20:15:51.262Z,99878.03
2019-03-02T20:18:22.576Z,99874.54
2019-03-02T20:20:53.847Z,99876.22
2019-03-02T20:23:25.264Z,99875.44
2019-03-02T20:25:56.596Z,99874.84
2019-03-02T20:28:27.941Z,99880.38
2019-03-02T20:30:59.248Z,99877.63
2019-03-02T20:33:30.595Z,99884.59
2019-03-02T20:36:01.882Z,99881.56
2019-03-02T20:38:33.174Z,99891.51
2019-03-02T20:41:04.611Z,99898.22
2019-03-02T20:43:35.958Z,99880.25
2019-03-02T20:46:07.366Z,99875.62
2019-03-02T20:48:38.627Z,99880.58
2019-03-02T20:51:09.962Z,99875.77
2019-03-02T20:53:41.260Z,99870.73
2019-03-02T20:56:12.595Z,99865.55
2019-03-02T20:58:43.868Z,99870.19
2019-03-02T21:01:15.222Z,99866.78
2019-03-02T21:03:46.531Z,99880.27
2019-03-02T21:06:17.828Z,99874.99
2019-03-02T21:08:49.360Z,99873.86
2019-03-02T21:11:20.599Z,99881.98
2019-03-02T21:13:52.100Z,99879.17
2019-03-02T21:16:23.410Z,99865.96
2019-03-02T21:18:54.742Z,99870.28
2019-03-02T21:21:26.047Z,99869.37
2019-03-02T21:23:58.175Z,99870.28
2019-03-02T21:26:29.525Z,99870.45
2019-03-02T21:29:00.881Z,99871.05
2019-03-02T21:31:33.071Z,99876.09
2019-03-02T21:34:04.479Z,99869.19
2019-03-02T21:36:35.846Z,99878.95
2019-03-02T21:39:08.714Z,99878.49
2019-03-02T21:41:40.087Z,99892.28
2019-03-02T21:44:11.457Z,99864.33
2019-03-02T21:46:42.791Z,99866.65
2019-03-02T21:49:14.291Z,99870.05
2019-03-02T21:51:45.613Z,99866.51
2019-03-02T21:54:16.932Z,99868.83
2019-03-02T21:56:48.282Z,99874.40
2019-03-02T21:59:19.602Z,99865.02
2019-03-02T22:01:50.923Z,99860.70
2019-03-02T22:04:22.255Z,99856.42
2019-03-02T22:06:53.513Z,99859.83
2019-03-02T22:09:24.840Z,99864.23
2019-03-02T22:11:56.160Z,99869.31
2019-03-02T22:14:27.500Z,99850.84
2019-03-02T22:17:00.595Z,99844.26
2019-03-02T22:19:31.885Z,99866.36
2019-03-02T22:22:03.128Z,99852.73
2019-03-02T22:24:34.382Z,99853.91
2019-03-02T22:27:08.876Z,99856.91
2019-03-02T22:29:42.904Z,99854.67
2019-03-02T22:32:14.154Z,99849.45
2019-03-02T22:34:45.397Z,99856.98
2019-03-02T22:37:16.700Z,99850.08
2019-03-02T22:39:48.009Z,99849.14
2019-03-02T22:42:19.270Z,99848.31
2019-03-02T22:44:50.606Z,99838.05
2019-03-02T22:47:22.971Z,99846.93
2019-03-02T22:49:54.569Z,99847.34
2019-03-02T22:52:25.797Z,99849.19
2019-03-02T22:54:57.079Z,99851.61
2019-03-02T22:57:28.328Z,99834.41
2019-03-02T23:01:01.749Z,99835.51
2019-03-02T23:03:30.565Z,99841.68
2019-03-02T23:06:02.042Z,99841.08
2019-03-02T23:08:33.324Z,99834.20
2019-03-02T23:11:04.654Z,99836.19
2019-03-02T23:13:35.938Z,99834.19
2019-03-02T23:16:07.271Z,99835.11
2019-03-02T23:18:38.558Z,99843.55
2019-03-02T23:21:09.863Z,99837.91
2019-03-02T23:23:41.123Z,99841.55
2019-03-02T23:26:12.456Z,99834.06
2019-03-02T23:28:43.725Z,99816.01
2019-03-02T23:31:15.559Z,99810.66
2019-03-02T23:33:46.867Z,99812.69
2019-03-02T23:36:18.174Z,99822.67
2019-03-02T23:38:49.436Z,99813.15
2019-03-02T23:41:20.821Z,99797.38
2019-03-02T23:47:54.160Z,99795.75
2019-03-02T23:50:25.403Z,99799.53
2019-03-02T23:52:56.655Z,99798.45
2019-03-02T23:55:27.919Z,99798.30
2019-03-02T23:57:59.240Z,99796.13
